Time;durP1;ratioP1;P1;durP2;ratioP2;P2;SDS_P1;SDS_P2;PMS_P1;PMS_P2;Temp;Humidity;BMP_temperature;BMP_pressure;BME280_temperature;BME280_humidity;BME280_pressure;Samples;Min_cycle;Max_cycle;Signal;HPM_P1;HPM_P2
2022/06/12 00:02:25;;;;;;;9.50;8.63;;;;;;;;;;5058073;28;24465;-46
2022/06/12 00:04:50;;;;;;;10.03;9.10;;;;;;;;;;5055100;28;24414;-46
2022/06/12 00:07:15;;;;;;;9.20;8.40;;;;;;;;;;5058171;28;24454;-47
2022/06/12 00:09:41;;;;;;;9.67;8.87;;;;;;;;;;5055667;28;24411;-46
2022/06/12 00:12:06;;;;;;;9.53;8.83;;;;;;;;;;5061998;28;24513;-46
2022/06/12 00:14:31;;;;;;;9.67;8.87;;;;;;;;;;5060030;28;24427;-46
2022/06/12 00:16:56;;;;;;;8.60;7.90;;;;;;;;;;5066019;28;24436;-46
2022/06/12 00:19:22;;;;;;;9.40;8.65;;;;;;;;;;5056650;28;24522;-46
2022/06/12 00:21:47;;;;;;;9.60;8.70;;;;;;;;;;5062674;28;24579;-46
2022/06/12 00:24:14;;;;;;;8.70;7.97;;;;;;;;;;5059165;28;24474;-47
2022/06/12 00:26:41;;;;;;;9.45;8.57;;;;;;;;;;5052978;28;24431;-47
2022/06/12 00:29:09;;;;;;;8.27;7.68;;;;;;;;;;5060165;28;24418;-48
2022/06/12 00:31:35;;;;;;;8.70;7.90;;;;;;;;;;5056457;28;24796;-47
2022/06/12 00:34:01;;;;;;;8.55;7.95;;;;;;;;;;5058617;28;24440;-46
2022/06/12 00:36:27;;;;;;;8.80;8.10;;;;;;;;;;5073233;28;24422;-46
2022/06/12 00:38:52;;;;;;;9.60;8.90;;;;;;;;;;5054086;28;24422;-46
2022/06/12 00:41:17;;;;;;;8.70;8.00;;;;;;;;;;5056744;28;24532;-46
2022/06/12 00:43:42;;;;;;;9.53;8.70;;;;;;;;;;5063562;28;24964;-46
2022/06/12 00:46:07;;;;;;;8.70;8.10;;;;;;;;;;5061310;28;24557;-46
2022/06/12 00:48:35;;;;;;;9.18;8.40;;;;;;;;;;5059077;28;24461;-46
2022/06/12 00:51:02;;;;;;;8.50;7.80;;;;;;;;;;5055079;28;24527;-47
2022/06/12 00:53:34;;;;;;;9.35;8.65;;;;;;;;;;5051687;28;24710;-46
2022/06/12 00:56:08;;;;;;;8.98;8.27;;;;;;;;;;5052784;28;26419;-47
2022/06/12 00:58:38;;;;;;;8.95;8.23;;;;;;;;;;5058062;28;24419;-46
2022/06/12 01:01:04;;;;;;;8.95;8.20;;;;;;;;;;5054368;28;24526;-46
2022/06/12 01:03:30;;;;;;;9.40;8.50;;;;;;;;;;5059717;28;24498;-46
2022/06/12 01:08:40;;;;;;;9.15;8.35;;;;;;;;;;5051634;28;24480;-47
2022/06/12 01:11:08;;;;;;;9.45;8.73;;;;;;;;;;5058924;28;26243;-45
2022/06/12 01:13:36;;;;;;;9.77;8.98;;;;;;;;;;5065880;28;24454;-47
2022/06/12 01:16:04;;;;;;;9.30;8.50;;;;;;;;;;5061073;28;24434;-46
2022/06/12 01:18:32;;;;;;;9.30;8.60;;;;;;;;;;5058226;28;24762;-47
2022/06/12 01:21:15;;;;;;;9.80;8.90;;;;;;;;;;5056663;28;24441;-47
2022/06/12 01:23:50;;;;;;;9.60;8.80;;;;;;;;;;5059626;28;24419;-46
2022/06/12 01:26:34;;;;;;;9.30;8.50;;;;;;;;;;5055610;28;25210;-47
2022/06/12 01:29:21;;;;;;;9.20;8.50;;;;;;;;;;5059403;28;24456;-46
2022/06/12 01:32:00;;;;;;;9.57;8.70;;;;;;;;;;5061003;28;24411;-47
2022/06/12 01:34:37;;;;;;;9.15;8.45;;;;;;;;;;5062271;28;24512;-47
2022/06/12 01:37:11;;;;;;;9.70;8.70;;;;;;;;;;5060040;28;24545;-47
2022/06/12 01:39:41;;;;;;;9.50;8.80;;;;;;;;;;5056548;28;24989;-47
2022/06/12 01:42:24;;;;;;;10.27;9.40;;;;;;;;;;5051326;28;24426;-47
2022/06/12 01:44:52;;;;;;;9.80;9.00;;;;;;;;;;5045406;28;24470;-47
2022/06/12 01:47:40;;;;;;;9.45;8.55;;;;;;;;;;5056834;28;24710;-47
2022/06/12 01:50:18;;;;;;;10.15;9.25;;;;;;;;;;5058156;28;25068;-47
2022/06/12 01:52:51;;;;;;;9.77;9.07;;;;;;;;;;5059939;28;24419;-47
2022/06/12 01:55:20;;;;;;;9.43;8.55;;;;;;;;;;5050292;28;24621;-47
2022/06/12 01:57:50;;;;;;;9.27;8.57;;;;;;;;;;5049193;28;24988;-47
2022/06/12 02:00:18;;;;;;;9.20;8.50;;;;;;;;;;5051850;28;24517;-47
2022/06/12 02:02:48;;;;;;;8.90;8.20;;;;;;;;;;5056626;28;24496;-49
2022/06/12 02:05:16;;;;;;;9.40;8.70;;;;;;;;;;5059320;28;24419;-47
2022/06/12 02:07:49;;;;;;;9.52;8.63;;;;;;;;;;5056718;28;24528;-47
2022/06/12 02:10:18;;;;;;;9.00;8.30;;;;;;;;;;5053420;28;24418;-47
2022/06/12 02:15:39;;;;;;;9.10;8.30;;;;;;;;;;5060069;28;24450;-46
2022/06/12 02:18:15;;;;;;;8.40;7.70;;;;;;;;;;5055918;28;25082;-47
2022/06/12 02:20:43;;;;;;;8.43;7.63;;;;;;;;;;5055084;28;24443;-46
2022/06/12 02:23:12;;;;;;;8.32;7.63;;;;;;;;;;5054671;28;24418;-46
2022/06/12 02:25:40;;;;;;;8.40;7.70;;;;;;;;;;5057006;28;25041;-46
2022/06/12 02:28:05;;;;;;;8.48;7.75;;;;;;;;;;5051022;28;24434;-46
2022/06/12 02:30:32;;;;;;;8.30;7.70;;;;;;;;;;5059018;28;24544;-46
2022/06/12 02:33:01;;;;;;;8.60;7.90;;;;;;;;;;5057864;28;24480;-46
2022/06/12 02:35:26;;;;;;;8.00;7.30;;;;;;;;;;5058096;28;24426;-47
2022/06/12 02:37:53;;;;;;;7.95;7.25;;;;;;;;;;5056509;28;24430;-47
2022/06/12 02:40:31;;;;;;;8.70;7.80;;;;;;;;;;5067399;28;24434;-47
2022/06/12 02:42:57;;;;;;;7.90;7.20;;;;;;;;;;5058957;28;24425;-48
2022/06/12 02:45:33;;;;;;;8.00;7.40;;;;;;;;;;5072387;28;24445;-47
2022/06/12 02:47:58;;;;;;;7.80;7.20;;;;;;;;;;5057809;28;24487;-47
2022/06/12 02:50:26;;;;;;;7.93;7.23;;;;;;;;;;5053961;28;24458;-47
2022/06/12 02:53:00;;;;;;;7.60;7.00;;;;;;;;;;5063933;28;24422;-47
2022/06/12 02:55:44;;;;;;;8.73;8.02;;;;;;;;;;5062641;28;24463;-47
2022/06/12 02:58:36;;;;;;;8.77;7.97;;;;;;;;;;5054844;28;24452;-47
2022/06/12 03:01:05;;;;;;;8.32;7.70;;;;;;;;;;5049623;28;25066;-46
2022/06/12 03:03:48;;;;;;;7.35;6.85;;;;;;;;;;5053137;28;25191;-47
2022/06/12 03:06:14;;;;;;;8.10;7.50;;;;;;;;;;5057160;28;24434;-47
2022/06/12 03:08:45;;;;;;;7.82;7.22;;;;;;;;;;5062990;28;24461;-47
2022/06/12 03:11:16;;;;;;;8.37;7.57;;;;;;;;;;5057279;28;24818;-47
2022/06/12 03:13:41;;;;;;;8.10;7.50;;;;;;;;;;5055428;28;24526;-47
2022/06/12 03:16:09;;;;;;;8.73;7.93;;;;;;;;;;5057545;28;24509;-47
2022/06/12 03:18:36;;;;;;;8.73;8.02;;;;;;;;;;5066086;28;24422;-47
2022/06/12 03:21:07;;;;;;;8.73;8.02;;;;;;;;;;5060122;28;24525;-47
2022/06/12 03:23:38;;;;;;;8.15;7.45;;;;;;;;;;5063389;28;24480;-47
2022/06/12 03:26:05;;;;;;;7.90;7.20;;;;;;;;;;5061263;28;24449;-47
2022/06/12 03:28:40;;;;;;;7.80;7.10;;;;;;;;;;5049675;28;25064;-47
2022/06/12 03:31:16;;;;;;;7.70;7.10;;;;;;;;;;5058896;28;24430;-47
2022/06/12 03:33:47;;;;;;;7.47;6.80;;;;;;;;;;5057914;28;24542;-47
2022/06/12 03:36:26;;;;;;;7.55;7.05;;;;;;;;;;5062196;28;25055;-47
2022/06/12 03:38:58;;;;;;;7.63;7.03;;;;;;;;;;5063383;28;24438;-47
2022/06/12 03:41:36;;;;;;;7.30;6.70;;;;;;;;;;5058222;28;24924;-47
2022/06/12 03:44:18;;;;;;;8.00;7.20;;;;;;;;;;5056939;28;24538;-48
2022/06/12 03:46:50;;;;;;;7.20;6.60;;;;;;;;;;5059142;28;24422;-48
2022/06/12 03:49:30;;;;;;;7.33;6.73;;;;;;;;;;5061730;28;24418;-47
2022/06/12 03:52:04;;;;;;;7.38;6.70;;;;;;;;;;5063179;28;24978;-47
2022/06/12 03:54:36;;;;;;;6.97;6.38;;;;;;;;;;5056275;28;25018;-47
2022/06/12 03:59:54;;;;;;;7.20;6.18;;;;;;;;;;5061864;28;24759;-47
2022/06/12 04:02:21;;;;;;;6.60;6.10;;;;;;;;;;5059296;28;24998;-48
2022/06/12 04:04:48;;;;;;;6.80;6.30;;;;;;;;;;5057318;28;24411;-47
2022/06/12 04:07:14;;;;;;;6.43;6.03;;;;;;;;;;5055107;28;24418;-47
2022/06/12 04:09:43;;;;;;;6.03;5.63;;;;;;;;;;5058744;28;24792;-47
2022/06/12 04:12:14;;;;;;;5.90;5.40;;;;;;;;;;5059983;28;25240;-47
2022/06/12 04:14:45;;;;;;;6.40;5.90;;;;;;;;;;5061578;28;24521;-45
2022/06/12 04:17:10;;;;;;;6.30;5.80;;;;;;;;;;5059925;28;24525;-48
2022/06/12 04:19:59;;;;;;;6.40;5.90;;;;;;;;;;5048677;28;24509;-47
2022/06/12 04:22:26;;;;;;;7.47;6.90;;;;;;;;;;5059511;28;25081;-46
2022/06/12 04:24:57;;;;;;;7.10;6.53;;;;;;;;;;5057519;28;24410;-46
2022/06/12 04:27:25;;;;;;;7.57;6.97;;;;;;;;;;5060981;28;24437;-45
2022/06/12 04:29:52;;;;;;;7.32;6.80;;;;;;;;;;5057351;28;24846;-47
2022/06/12 04:32:18;;;;;;;7.13;6.45;;;;;;;;;;5050893;28;25090;-46
2022/06/12 04:34:43;;;;;;;6.78;6.18;;;;;;;;;;5056854;28;24493;-46
2022/06/12 04:37:17;;;;;;;6.20;5.70;;;;;;;;;;5062423;28;24423;-47
2022/06/12 04:39:43;;;;;;;6.90;6.40;;;;;;;;;;5061794;28;24425;-47
2022/06/12 04:42:08;;;;;;;5.90;5.40;;;;;;;;;;5062472;28;24402;-46
2022/06/12 04:44:33;;;;;;;6.60;6.20;;;;;;;;;;5057785;28;24435;-47
2022/06/12 04:47:00;;;;;;;6.37;5.97;;;;;;;;;;5062489;28;24410;-46
2022/06/12 04:49:27;;;;;;;7.25;6.60;;;;;;;;;;5066023;28;24403;-47
2022/06/12 04:51:53;;;;;;;6.33;5.87;;;;;;;;;;5079487;28;24430;-46
2022/06/12 04:54:19;;;;;;;6.82;6.32;;;;;;;;;;5065301;28;24853;-46
2022/06/12 04:56:44;;;;;;;7.37;6.77;;;;;;;;;;5062981;28;24427;-46
2022/06/12 04:59:10;;;;;;;6.20;5.80;;;;;;;;;;5067400;28;24853;-46
2022/06/12 05:01:35;;;;;;;6.30;5.90;;;;;;;;;;5060319;28;24496;-46
2022/06/12 05:04:01;;;;;;;6.40;5.90;;;;;;;;;;5075021;28;24425;-46
2022/06/12 05:06:27;;;;;;;6.63;6.13;;;;;;;;;;5071026;28;24426;-46
2022/06/12 05:08:52;;;;;;;6.20;5.60;;;;;;;;;;5060124;28;24415;-46
2022/06/12 05:11:18;;;;;;;6.32;5.90;;;;;;;;;;5063607;28;24426;-47
2022/06/12 05:13:43;;;;;;;6.30;5.80;;;;;;;;;;5058463;28;24434;-47
2022/06/12 05:16:12;;;;;;;5.78;5.38;;;;;;;;;;5052730;28;24429;-47
2022/06/12 05:18:37;;;;;;;5.60;5.20;;;;;;;;;;5064807;28;24421;-47
2022/06/12 05:21:03;;;;;;;5.80;5.30;;;;;;;;;;5060816;28;24522;-47
2022/06/12 05:23:28;;;;;;;5.10;4.80;;;;;;;;;;5057193;28;24446;-47
2022/06/12 05:25:54;;;;;;;5.72;5.32;;;;;;;;;;5054458;28;24469;-46
2022/06/12 05:28:19;;;;;;;5.50;5.10;;;;;;;;;;5053196;28;24449;-47
2022/06/12 05:30:45;;;;;;;5.60;5.20;;;;;;;;;;5059655;28;26478;-46
2022/06/12 05:33:11;;;;;;;5.97;5.50;;;;;;;;;;5059457;28;24430;-46
2022/06/12 05:35:39;;;;;;;5.88;5.38;;;;;;;;;;5059703;28;25171;-46
2022/06/12 05:38:05;;;;;;;5.32;4.93;;;;;;;;;;5059788;28;24430;-46
2022/06/12 05:40:32;;;;;;;5.40;5.00;;;;;;;;;;5051380;28;24522;-46
2022/06/12 05:42:57;;;;;;;5.50;5.10;;;;;;;;;;5062255;28;24465;-46
2022/06/12 05:45:23;;;;;;;4.90;4.60;;;;;;;;;;5055547;28;24560;-45
2022/06/12 05:47:56;;;;;;;5.85;5.35;;;;;;;;;;5057053;28;24457;-47
2022/06/12 05:50:23;;;;;;;5.80;5.30;;;;;;;;;;5062119;28;24423;-46
2022/06/12 05:52:48;;;;;;;5.25;4.90;;;;;;;;;;5060279;28;24422;-46
2022/06/12 05:55:13;;;;;;;5.80;5.40;;;;;;;;;;5059317;28;24522;-47
2022/06/12 05:57:39;;;;;;;6.00;5.50;;;;;;;;;;5056535;28;24423;-47
2022/06/12 06:00:06;;;;;;;5.50;5.00;;;;;;;;;;5054744;28;24523;-46
2022/06/12 06:02:31;;;;;;;5.40;4.95;;;;;;;;;;5066787;28;24505;-47
2022/06/12 06:04:56;;;;;;;5.40;5.00;;;;;;;;;;5058706;28;24426;-47
2022/06/12 06:07:21;;;;;;;5.40;5.00;;;;;;;;;;5060643;28;24411;-48
2022/06/12 06:09:46;;;;;;;4.90;4.60;;;;;;;;;;5057431;28;24415;-46
2022/06/12 06:12:11;;;;;;;5.10;4.80;;;;;;;;;;5065659;28;24485;-47
2022/06/12 06:14:36;;;;;;;4.83;4.53;;;;;;;;;;5075873;28;24427;-46
2022/06/12 06:17:02;;;;;;;5.20;4.80;;;;;;;;;;5071739;28;24426;-46
2022/06/12 06:19:27;;;;;;;5.60;5.30;;;;;;;;;;5068272;28;24429;-47
2022/06/12 06:21:52;;;;;;;5.30;4.90;;;;;;;;;;5067175;28;24472;-46
2022/06/12 06:24:17;;;;;;;5.40;4.90;;;;;;;;;;5070212;28;24418;-46
2022/06/12 06:26:42;;;;;;;5.80;5.40;;;;;;;;;;5061470;28;24426;-46
2022/06/12 06:29:08;;;;;;;6.57;6.07;;;;;;;;;;5058346;28;24419;-47
2022/06/12 06:31:33;;;;;;;5.77;5.37;;;;;;;;;;5061110;28;24460;-47
2022/06/12 06:33:59;;;;;;;5.70;5.30;;;;;;;;;;5066381;28;24960;-46
2022/06/12 06:36:24;;;;;;;5.10;4.70;;;;;;;;;;5061654;28;24820;-46
2022/06/12 06:38:50;;;;;;;5.70;5.20;;;;;;;;;;5061237;28;24852;-46
2022/06/12 06:41:16;;;;;;;5.23;4.93;;;;;;;;;;5064007;28;24426;-46
2022/06/12 06:46:25;;;;;;;5.13;4.83;;;;;;;;;;5052497;28;24475;-46
2022/06/12 06:48:50;;;;;;;5.43;5.03;;;;;;;;;;5064088;28;24439;-47
2022/06/12 06:51:16;;;;;;;5.10;4.70;;;;;;;;;;5055205;28;24565;-46
2022/06/12 06:53:41;;;;;;;5.17;4.77;;;;;;;;;;5063671;28;24492;-46
2022/06/12 06:56:06;;;;;;;5.07;4.67;;;;;;;;;;5059888;28;24450;-47
2022/06/12 06:58:32;;;;;;;5.50;5.00;;;;;;;;;;5060803;28;24449;-46
2022/06/12 07:00:57;;;;;;;5.13;4.73;;;;;;;;;;5061740;28;25019;-46
2022/06/12 07:03:22;;;;;;;5.25;4.85;;;;;;;;;;5059733;28;24461;-47
2022/06/12 07:05:48;;;;;;;4.77;4.47;;;;;;;;;;5065525;28;24461;-50
2022/06/12 07:08:14;;;;;;;5.40;4.90;;;;;;;;;;5056685;28;24485;-46
2022/06/12 07:10:40;;;;;;;5.83;5.43;;;;;;;;;;5062637;28;24998;-46
2022/06/12 07:13:06;;;;;;;5.07;4.68;;;;;;;;;;5047717;28;24455;-46
2022/06/12 07:15:32;;;;;;;5.07;4.78;;;;;;;;;;5057948;28;25055;-47
2022/06/12 07:17:58;;;;;;;4.70;4.40;;;;;;;;;;5058027;28;24434;-47
2022/06/12 07:20:26;;;;;;;4.80;4.40;;;;;;;;;;5065573;28;24955;-46
2022/06/12 07:22:51;;;;;;;5.20;4.90;;;;;;;;;;5057894;28;24777;-46
2022/06/12 07:25:17;;;;;;;4.88;4.57;;;;;;;;;;5062118;28;24417;-46
2022/06/12 07:27:42;;;;;;;5.50;5.00;;;;;;;;;;5058029;28;24458;-47
2022/06/12 07:30:09;;;;;;;4.90;4.50;;;;;;;;;;5058376;28;24846;-46
2022/06/12 07:32:34;;;;;;;4.90;4.50;;;;;;;;;;5050407;28;25000;-46
2022/06/12 07:34:59;;;;;;;4.80;4.40;;;;;;;;;;5062790;28;24469;-46
2022/06/12 07:37:24;;;;;;;4.97;4.65;;;;;;;;;;5060399;28;24426;-45
2022/06/12 07:39:50;;;;;;;5.10;4.70;;;;;;;;;;5062293;28;24517;-45
2022/06/12 07:42:16;;;;;;;5.10;4.70;;;;;;;;;;5050919;28;24507;-45
2022/06/12 07:44:41;;;;;;;5.10;4.80;;;;;;;;;;5069571;28;24531;-46
2022/06/12 07:47:06;;;;;;;4.90;4.60;;;;;;;;;;5052374;28;24419;-46
2022/06/12 07:49:32;;;;;;;4.97;4.57;;;;;;;;;;5062710;28;24569;-46
2022/06/12 07:51:58;;;;;;;4.90;4.60;;;;;;;;;;5048715;28;24415;-47
2022/06/12 07:54:23;;;;;;;4.50;4.20;;;;;;;;;;5039910;28;25126;-47
2022/06/12 07:56:48;;;;;;;5.00;4.70;;;;;;;;;;5049220;28;24522;-48
2022/06/12 07:59:14;;;;;;;4.83;4.53;;;;;;;;;;5063882;28;24619;-46
2022/06/12 08:01:39;;;;;;;5.03;4.73;;;;;;;;;;5051227;28;24442;-45
2022/06/12 08:04:05;;;;;;;4.90;4.60;;;;;;;;;;5043332;28;24498;-47
2022/06/12 08:06:31;;;;;;;4.90;4.60;;;;;;;;;;5050632;28;24523;-47
2022/06/12 08:08:57;;;;;;;5.10;4.60;;;;;;;;;;5063039;28;25449;-46
2022/06/12 08:11:23;;;;;;;4.68;4.38;;;;;;;;;;5052995;28;24423;-46
2022/06/12 08:13:49;;;;;;;5.60;5.20;;;;;;;;;;5044562;28;24410;-47
2022/06/12 08:16:14;;;;;;;5.80;5.40;;;;;;;;;;5051668;28;24510;-45
2022/06/12 08:18:39;;;;;;;5.60;4.70;;;;;;;;;;5057310;28;24433;-46
2022/06/12 08:21:07;;;;;;;5.80;5.40;;;;;;;;;;5049028;28;24973;-47
2022/06/12 08:23:37;;;;;;;5.40;5.00;;;;;;;;;;5043802;28;24557;-47
2022/06/12 08:26:05;;;;;;;5.55;5.05;;;;;;;;;;5042586;28;24429;-47
2022/06/12 08:28:31;;;;;;;5.32;4.93;;;;;;;;;;5050189;28;24514;-47
2022/06/12 08:30:57;;;;;;;4.70;4.40;;;;;;;;;;5061027;28;24536;-47
2022/06/12 08:33:22;;;;;;;5.10;4.70;;;;;;;;;;5062628;28;24923;-48
2022/06/12 08:35:48;;;;;;;4.77;4.47;;;;;;;;;;5059265;28;24425;-48
2022/06/12 08:38:14;;;;;;;4.78;4.40;;;;;;;;;;5062174;28;24516;-47
2022/06/12 08:40:51;;;;;;;5.00;4.60;;;;;;;;;;5062496;28;24980;-47
2022/06/12 08:43:24;;;;;;;4.43;4.13;;;;;;;;;;5058578;28;24819;-48
2022/06/12 08:45:50;;;;;;;4.10;3.90;;;;;;;;;;5060001;28;25073;-47
2022/06/12 08:48:28;;;;;;;4.30;3.90;;;;;;;;;;5063980;28;24399;-47
2022/06/12 08:51:01;;;;;;;4.10;3.80;;;;;;;;;;5062553;28;24421;-48
2022/06/12 08:53:32;;;;;;;4.40;4.10;;;;;;;;;;5060180;28;24474;-47
2022/06/12 08:56:15;;;;;;;3.83;3.60;;;;;;;;;;5060134;28;24574;-48
2022/06/12 08:59:01;;;;;;;3.80;3.40;;;;;;;;;;5060046;28;24398;-47
2022/06/12 09:01:28;;;;;;;3.50;3.30;;;;;;;;;;5061823;28;24423;-46
2022/06/12 09:03:54;;;;;;;5.00;4.70;;;;;;;;;;5063587;28;24394;-47
2022/06/12 09:06:31;;;;;;;4.15;3.85;;;;;;;;;;5058001;28;24982;-47
2022/06/12 09:09:19;;;;;;;3.50;3.20;;;;;;;;;;5060116;28;24435;-46
2022/06/12 09:11:46;;;;;;;3.05;2.80;;;;;;;;;;5061138;28;24519;-47
2022/06/12 09:14:30;;;;;;;3.23;3.03;;;;;;;;;;5059868;28;24427;-46
2022/06/12 09:17:04;;;;;;;3.60;3.10;;;;;;;;;;5063176;28;24897;-47
2022/06/12 09:19:57;;;;;;;3.10;2.80;;;;;;;;;;5059943;28;24715;-48
2022/06/12 09:22:29;;;;;;;3.10;2.90;;;;;;;;;;5058025;28;24436;-46
2022/06/12 09:25:21;;;;;;;3.25;3.05;;;;;;;;;;5059557;28;24460;-47
2022/06/12 09:27:52;;;;;;;3.15;2.85;;;;;;;;;;5059003;28;24510;-46
2022/06/12 09:30:20;;;;;;;2.72;2.60;;;;;;;;;;5061721;28;24996;-47
2022/06/12 09:32:45;;;;;;;3.63;2.80;;;;;;;;;;5061408;28;24932;-47
2022/06/12 09:35:22;;;;;;;2.90;2.70;;;;;;;;;;5058633;28;24440;-47
2022/06/12 09:40:43;;;;;;;2.73;2.53;;;;;;;;;;5062772;28;24991;-46
2022/06/12 09:43:08;;;;;;;2.80;2.60;;;;;;;;;;5059501;28;24387;-46
2022/06/12 09:45:51;;;;;;;3.10;2.90;;;;;;;;;;5057468;28;24453;-47
2022/06/12 09:48:20;;;;;;;2.85;2.65;;;;;;;;;;5062895;28;24421;-47
2022/06/12 09:50:57;;;;;;;2.95;2.65;;;;;;;;;;5062887;28;24409;-46
2022/06/12 09:53:22;;;;;;;2.83;2.50;;;;;;;;;;5061347;28;24387;-47
2022/06/12 09:55:51;;;;;;;2.60;2.40;;;;;;;;;;5058244;28;24386;-47
2022/06/12 09:58:26;;;;;;;2.60;2.40;;;;;;;;;;5056071;28;24443;-46
2022/06/12 10:00:54;;;;;;;3.05;2.83;;;;;;;;;;5061310;28;24469;-47
2022/06/12 10:03:25;;;;;;;3.00;2.80;;;;;;;;;;5063134;28;24399;-46
2022/06/12 10:06:02;;;;;;;3.00;2.50;;;;;;;;;;5062692;28;24472;-47
2022/06/12 10:08:31;;;;;;;4.23;2.70;;;;;;;;;;5058697;28;24510;-48
2022/06/12 10:10:59;;;;;;;3.55;2.70;;;;;;;;;;5058306;28;24419;-47
2022/06/12 10:13:29;;;;;;;2.70;2.60;;;;;;;;;;5059296;28;24809;-48
2022/06/12 10:16:02;;;;;;;3.13;2.80;;;;;;;;;;5060776;28;24402;-48
2022/06/12 10:18:36;;;;;;;2.70;2.50;;;;;;;;;;5062902;28;24390;-47
2022/06/12 10:21:08;;;;;;;2.77;2.57;;;;;;;;;;5046569;28;24435;-47
2022/06/12 10:23:33;;;;;;;3.20;2.90;;;;;;;;;;5052925;28;24418;-47
2022/06/12 10:25:59;;;;;;;2.95;2.75;;;;;;;;;;5049603;28;24424;-47
2022/06/12 10:28:29;;;;;;;2.60;2.40;;;;;;;;;;5042689;28;24498;-47
2022/06/12 10:31:00;;;;;;;2.70;2.50;;;;;;;;;;5050543;28;24421;-46
2022/06/12 10:33:30;;;;;;;2.80;2.60;;;;;;;;;;5058226;28;24434;-47
2022/06/12 10:36:01;;;;;;;2.70;2.50;;;;;;;;;;5046108;28;24999;-46
2022/06/12 10:38:28;;;;;;;2.20;2.10;;;;;;;;;;5042380;28;24407;-47
2022/06/12 10:40:56;;;;;;;2.70;2.50;;;;;;;;;;5052298;28;24430;-46
2022/06/12 10:43:30;;;;;;;2.70;2.50;;;;;;;;;;5060494;28;24501;-46
2022/06/12 10:46:06;;;;;;;2.40;2.30;;;;;;;;;;5056645;28;24427;-49
2022/06/12 10:48:34;;;;;;;2.60;2.40;;;;;;;;;;5056384;28;25149;-47
2022/06/12 10:51:01;;;;;;;2.90;2.70;;;;;;;;;;5060896;28;24441;-47
2022/06/12 10:53:28;;;;;;;2.40;2.20;;;;;;;;;;5060616;28;24554;-46
2022/06/12 10:55:59;;;;;;;2.50;2.30;;;;;;;;;;5062416;28;24960;-46
2022/06/12 10:58:53;;;;;;;2.80;2.60;;;;;;;;;;5057961;28;24429;-47
2022/06/12 11:01:25;;;;;;;3.20;2.67;;;;;;;;;;5062621;28;24970;-47
2022/06/12 11:04:05;;;;;;;3.97;3.13;;;;;;;;;;5061907;28;24510;-48
2022/06/12 11:06:39;;;;;;;2.80;2.60;;;;;;;;;;5064979;28;24426;-46
2022/06/12 11:09:13;;;;;;;2.92;2.63;;;;;;;;;;5062364;28;24399;-48
2022/06/12 11:11:51;;;;;;;2.80;2.60;;;;;;;;;;5060107;28;24429;-47
2022/06/12 11:14:22;;;;;;;3.10;2.90;;;;;;;;;;5062284;28;24536;-47
2022/06/12 11:16:53;;;;;;;4.20;2.90;;;;;;;;;;5062985;28;24427;-45
2022/06/12 11:19:22;;;;;;;2.80;2.60;;;;;;;;;;5064155;28;24764;-48
2022/06/12 11:22:13;;;;;;;3.17;2.90;;;;;;;;;;5061995;28;24460;-46
2022/06/12 11:24:45;;;;;;;3.28;3.08;;;;;;;;;;5058001;28;24426;-46
2022/06/12 11:27:24;;;;;;;5.40;3.15;;;;;;;;;;5061615;28;25029;-46
2022/06/12 11:30:08;;;;;;;3.45;3.25;;;;;;;;;;5063538;28;24785;-47
2022/06/12 11:32:57;;;;;;;3.60;3.30;;;;;;;;;;5065391;28;25182;-47
2022/06/12 11:35:30;;;;;;;3.43;3.23;;;;;;;;;;5060069;28;24921;-47
2022/06/12 11:38:14;;;;;;;3.50;3.30;;;;;;;;;;5061465;28;24978;-47
2022/06/12 11:40:42;;;;;;;3.72;3.42;;;;;;;;;;5061637;28;24480;-47
2022/06/12 11:43:27;;;;;;;3.90;3.60;;;;;;;;;;5063554;28;24394;-47
2022/06/12 11:45:55;;;;;;;3.53;3.22;;;;;;;;;;5050418;28;24450;-47
2022/06/12 11:48:32;;;;;;;4.00;3.60;;;;;;;;;;5061736;28;24395;-47
2022/06/12 11:51:09;;;;;;;3.50;3.30;;;;;;;;;;5061273;28;24448;-47
2022/06/12 11:53:52;;;;;;;3.90;3.60;;;;;;;;;;5060381;28;25289;-46
2022/06/12 11:56:36;;;;;;;3.90;3.60;;;;;;;;;;5063203;28;24937;-47
2022/06/12 11:59:13;;;;;;;4.00;3.70;;;;;;;;;;5062850;28;24401;-46
2022/06/12 12:01:56;;;;;;;4.15;3.85;;;;;;;;;;5059528;28;24472;-46
2022/06/12 12:04:40;;;;;;;3.97;3.58;;;;;;;;;;5062234;28;24383;-46
2022/06/12 12:07:17;;;;;;;4.15;3.80;;;;;;;;;;5062277;28;24480;-46
2022/06/12 12:09:42;;;;;;;4.00;3.70;;;;;;;;;;5064576;28;24410;-46
2022/06/12 12:12:10;;;;;;;3.90;3.70;;;;;;;;;;5059417;28;24426;-46
2022/06/12 12:14:37;;;;;;;4.28;3.90;;;;;;;;;;5060960;28;24394;-45
2022/06/12 12:17:31;;;;;;;3.53;3.33;;;;;;;;;;5061534;28;24423;-46
2022/06/12 12:19:59;;;;;;;4.05;3.75;;;;;;;;;;5046473;28;24999;-47
2022/06/12 12:22:32;;;;;;;3.90;3.60;;;;;;;;;;5062768;28;24440;-47
2022/06/12 12:25:01;;;;;;;4.00;3.70;;;;;;;;;;5060897;28;24448;-45
2022/06/12 12:27:32;;;;;;;4.32;4.03;;;;;;;;;;5056869;28;24418;-46
2022/06/12 12:29:58;;;;;;;4.50;4.20;;;;;;;;;;5042451;28;24427;-46
2022/06/12 12:32:24;;;;;;;4.40;4.00;;;;;;;;;;5048389;28;24458;-47
2022/06/12 12:34:51;;;;;;;4.40;4.10;;;;;;;;;;5062415;28;24852;-47
2022/06/12 12:42:44;;;;;;;4.60;4.15;;;;;;;;;;5062062;28;24785;-47
2022/06/12 12:45:27;;;;;;;3.90;3.70;;;;;;;;;;5055880;28;24431;-47
2022/06/12 12:47:59;;;;;;;3.97;3.78;;;;;;;;;;5037852;28;24420;-47
2022/06/12 12:50:24;;;;;;;4.20;3.90;;;;;;;;;;5037775;28;24419;-47
2022/06/12 12:52:55;;;;;;;4.60;4.20;;;;;;;;;;5055090;28;24984;-47
2022/06/12 12:55:23;;;;;;;4.40;4.10;;;;;;;;;;5060882;28;24422;-47
2022/06/12 12:57:48;;;;;;;4.50;4.10;;;;;;;;;;5063995;28;24440;-48
2022/06/12 13:00:16;;;;;;;4.70;4.30;;;;;;;;;;5050672;28;24514;-46
2022/06/12 13:02:47;;;;;;;4.25;3.88;;;;;;;;;;5038261;28;24395;-46
2022/06/12 13:05:17;;;;;;;4.75;4.15;;;;;;;;;;5048895;28;25035;-47
2022/06/12 13:07:51;;;;;;;4.63;4.32;;;;;;;;;;5062724;28;24419;-46
2022/06/12 13:10:19;;;;;;;4.60;4.20;;;;;;;;;;5047864;28;24493;-46
2022/06/12 13:13:03;;;;;;;3.70;3.50;;;;;;;;;;5043042;28;24538;-46
2022/06/12 13:15:28;;;;;;;3.88;3.67;;;;;;;;;;5054118;28;24932;-47
2022/06/12 13:17:59;;;;;;;3.70;3.50;;;;;;;;;;5061554;28;24804;-46
2022/06/12 13:20:30;;;;;;;4.40;4.00;;;;;;;;;;5061269;28;24803;-46
2022/06/12 13:22:58;;;;;;;3.90;3.50;;;;;;;;;;5043927;28;24431;-46
2022/06/12 13:25:31;;;;;;;4.00;3.70;;;;;;;;;;5066323;28;25133;-47
2022/06/12 13:27:58;;;;;;;3.90;3.60;;;;;;;;;;5063508;28;24433;-46
2022/06/12 13:30:40;;;;;;;3.80;3.50;;;;;;;;;;5052615;28;24469;-52
2022/06/12 13:33:06;;;;;;;4.55;4.20;;;;;;;;;;5058476;28;24421;-45
2022/06/12 13:35:55;;;;;;;4.00;3.70;;;;;;;;;;5060062;28;24445;-46
2022/06/12 13:38:25;;;;;;;4.00;3.70;;;;;;;;;;5048627;28;24485;-47
2022/06/12 13:41:04;;;;;;;4.10;3.80;;;;;;;;;;5068524;28;24784;-45
2022/06/12 13:43:30;;;;;;;3.90;3.60;;;;;;;;;;5070008;28;24933;-48
2022/06/12 13:45:56;;;;;;;4.40;4.03;;;;;;;;;;5052147;28;24418;-46
2022/06/12 13:48:26;;;;;;;4.05;3.75;;;;;;;;;;5060849;28;24392;-46
2022/06/12 13:51:14;;;;;;;3.70;3.50;;;;;;;;;;5057085;28;24472;-46
2022/06/12 13:53:43;;;;;;;3.70;3.40;;;;;;;;;;5019817;28;24975;-47
2022/06/12 13:56:10;;;;;;;4.05;3.75;;;;;;;;;;5073334;28;24618;-45
2022/06/12 13:58:39;;;;;;;4.20;3.80;;;;;;;;;;5065072;28;24748;-45
2022/06/12 14:01:06;;;;;;;4.00;3.60;;;;;;;;;;5061644;28;24572;-47
2022/06/12 14:03:36;;;;;;;4.05;3.75;;;;;;;;;;5067099;28;24500;-45
2022/06/12 14:06:04;;;;;;;3.40;3.20;;;;;;;;;;5069691;28;24427;-46
2022/06/12 14:08:32;;;;;;;3.80;3.50;;;;;;;;;;5071654;28;24426;-46
2022/06/12 14:10:57;;;;;;;3.30;3.10;;;;;;;;;;5059706;28;24427;-47
2022/06/12 14:13:30;;;;;;;3.80;3.50;;;;;;;;;;5060303;28;24421;-46
2022/06/12 14:16:12;;;;;;;3.40;3.20;;;;;;;;;;5058870;28;24466;-47
2022/06/12 14:18:39;;;;;;;3.80;3.50;;;;;;;;;;5058463;28;24426;-46
2022/06/12 14:21:18;;;;;;;3.97;3.60;;;;;;;;;;5059098;28;24423;-46
2022/06/12 14:23:53;;;;;;;4.00;3.60;;;;;;;;;;5056339;28;24493;-45
2022/06/12 14:26:26;;;;;;;3.50;3.30;;;;;;;;;;5061660;28;24462;-49
2022/06/12 14:28:52;;;;;;;3.72;3.42;;;;;;;;;;5060907;28;24423;-46
2022/06/12 14:31:17;;;;;;;3.93;3.63;;;;;;;;;;5059395;28;24971;-46
2022/06/12 14:33:56;;;;;;;3.80;3.50;;;;;;;;;;5058933;28;24956;-46
2022/06/12 14:36:29;;;;;;;3.60;3.30;;;;;;;;;;5059901;28;25300;-46
2022/06/12 14:38:55;;;;;;;3.00;2.90;;;;;;;;;;5057190;28;24447;-47
2022/06/12 14:41:27;;;;;;;3.35;3.05;;;;;;;;;;5055429;28;25413;-45
2022/06/12 14:43:54;;;;;;;3.20;3.00;;;;;;;;;;5051003;28;24523;-46
2022/06/12 14:46:24;;;;;;;3.30;3.00;;;;;;;;;;5071431;28;24426;-45
2022/06/12 14:48:49;;;;;;;4.63;3.40;;;;;;;;;;5060936;28;24844;-45
2022/06/12 14:51:14;;;;;;;3.10;2.90;;;;;;;;;;5065072;28;25036;-45
2022/06/12 14:53:40;;;;;;;3.40;3.10;;;;;;;;;;5066083;28;24398;-46
2022/06/12 14:56:16;;;;;;;3.20;2.90;;;;;;;;;;5061650;28;24438;-47
2022/06/12 14:58:42;;;;;;;3.90;3.60;;;;;;;;;;5058266;28;24505;-46
2022/06/12 15:01:10;;;;;;;3.30;3.00;;;;;;;;;;5061195;28;24427;-46
2022/06/12 15:03:35;;;;;;;3.00;2.80;;;;;;;;;;5066078;28;24477;-46
2022/06/12 15:06:00;;;;;;;2.90;2.80;;;;;;;;;;5064218;28;24522;-46
2022/06/12 15:08:26;;;;;;;2.83;2.63;;;;;;;;;;5058977;28;24972;-46
2022/06/12 15:10:51;;;;;;;3.00;2.70;;;;;;;;;;5062497;28;24417;-46
2022/06/12 15:13:18;;;;;;;2.90;2.70;;;;;;;;;;5061055;28;24415;-47
2022/06/12 15:15:44;;;;;;;2.55;2.35;;;;;;;;;;5064251;28;25026;-47
2022/06/12 15:18:10;;;;;;;2.90;2.70;;;;;;;;;;5062487;28;24430;-47
2022/06/12 15:20:38;;;;;;;2.73;2.53;;;;;;;;;;5059192;28;24437;-47